createdAt,value
2019-05-02T00:00:26.173Z,996.20
2019-05-02T00:01:26.142Z,996.20
2019-05-02T00:02:28.918Z,996.17
2019-05-02T00:03:26.123Z,996.20
2019-05-02T00:04:26.111Z,996.17
2019-05-02T00:05:27.447Z,996.18
2019-05-02T00:06:27.087Z,996.14
2019-05-02T00:07:26.076Z,996.12
2019-05-02T00:08:29.224Z,996.13
2019-05-02T00:09:27.052Z,996.10
2019-05-02T00:10:26.109Z,996.11
2019-05-02T00:11:26.035Z,996.12
2019-05-02T00:12:26.020Z,996.07
2019-05-02T00:13:26.008Z,996.09
2019-05-02T00:14:25.998Z,996.05
2019-05-02T00:15:26.005Z,996.08
2019-05-02T00:16:25.975Z,996.11
2019-05-02T00:17:27.452Z,996.08
2019-05-02T00:18:25.954Z,996.09
2019-05-02T00:19:25.942Z,996.07
2019-05-02T00:20:27.148Z,996.02
2019-05-02T00:21:25.919Z,996.04
2019-05-02T00:22:25.907Z,996.05
2019-05-02T00:23:28.020Z,996.07
2019-05-02T00:24:25.890Z,996.05
2019-05-02T00:25:25.877Z,996.04
2019-05-02T00:26:25.914Z,996.03
2019-05-02T00:27:25.853Z,996.07
2019-05-02T00:28:25.842Z,996.02
2019-05-02T00:29:25.828Z,996.03
2019-05-02T00:30:30.003Z,996.03
2019-05-02T00:31:26.827Z,995.99
2019-05-02T00:32:25.794Z,996.03
2019-05-02T00:33:29.230Z,996.01
2019-05-02T00:34:26.775Z,996.02
2019-05-02T00:35:25.764Z,996.01
2019-05-02T00:36:25.779Z,996.00
2019-05-02T00:37:26.692Z,996.06
2019-05-02T00:38:25.730Z,995.98
2019-05-02T00:39:25.718Z,996.01
2019-05-02T00:40:27.732Z,995.98
2019-05-02T00:41:25.697Z,995.96
2019-05-02T00:42:25.704Z,995.96
2019-05-02T00:43:29.077Z,995.97
2019-05-02T00:44:26.662Z,995.94
2019-05-02T00:45:25.989Z,995.90
2019-05-02T00:46:25.644Z,995.91
2019-05-02T00:47:25.649Z,995.91
2019-05-02T00:48:25.616Z,995.92
2019-05-02T00:49:26.355Z,995.86
2019-05-02T00:50:25.595Z,995.88
2019-05-02T00:51:26.757Z,995.85
2019-05-02T00:52:25.588Z,995.87
2019-05-02T00:53:25.562Z,995.84
2019-05-02T00:54:25.549Z,995.81
2019-05-02T00:55:28.830Z,995.83
2019-05-02T00:56:26.533Z,995.85
2019-05-02T00:57:25.551Z,995.80
2019-05-02T00:58:27.356Z,995.80
2019-05-02T00:59:26.496Z,995.79
2019-05-02T01:00:25.487Z,995.78
2019-05-02T01:01:29.444Z,995.76
2019-05-02T01:02:25.461Z,995.75
2019-05-02T01:03:25.466Z,995.78
2019-05-02T01:04:27.671Z,995.76
2019-05-02T01:05:25.427Z,995.76
2019-05-02T01:06:25.416Z,995.77
2019-05-02T01:07:26.802Z,995.76
2019-05-02T01:08:25.415Z,995.71
2019-05-02T01:09:25.384Z,995.75
2019-05-02T01:10:25.372Z,995.72
2019-05-02T01:11:28.254Z,995.65
2019-05-02T01:12:26.968Z,995.68
2019-05-02T01:13:25.367Z,995.71
2019-05-02T01:14:27.218Z,995.69
2019-05-02T01:15:26.340Z,995.68
2019-05-02T01:16:25.305Z,995.70
2019-05-02T01:17:26.046Z,995.69
2019-05-02T01:18:26.311Z,995.75
2019-05-02T01:19:25.272Z,995.70
2019-05-02T01:20:27.505Z,995.75
2019-05-02T01:21:25.248Z,995.66
2019-05-02T01:22:25.237Z,995.70
2019-05-02T01:23:27.555Z,995.67
2019-05-02T01:24:25.236Z,995.71
2019-05-02T01:25:25.204Z,995.65
2019-05-02T01:26:29.315Z,995.68
2019-05-02T01:27:26.180Z,995.67
2019-05-02T01:28:25.171Z,995.70
2019-05-02T01:29:29.761Z,995.72
2019-05-02T01:30:26.146Z,995.65
2019-05-02T01:31:25.135Z,995.66
2019-05-02T01:32:29.663Z,995.63
2019-05-02T01:33:26.114Z,995.68
2019-05-02T01:34:25.102Z,995.69
2019-05-02T01:35:27.010Z,995.65
2019-05-02T01:36:26.079Z,995.66
2019-05-02T01:37:25.069Z,995.63
2019-05-02T01:38:26.526Z,995.62
2019-05-02T01:39:26.053Z,995.59
2019-05-02T01:40:25.066Z,995.57
2019-05-02T01:41:29.209Z,995.62
2019-05-02T01:42:39.064Z,995.55
2019-05-02T01:43:26.002Z,995.59
2019-05-02T01:44:24.988Z,995.54
2019-05-02T01:45:24.980Z,995.54
2019-05-02T01:46:24.993Z,995.54
2019-05-02T01:47:29.174Z,995.53
2019-05-02T01:48:25.943Z,995.57
2019-05-02T01:49:24.930Z,995.54
2019-05-02T01:50:28.930Z,995.55
2019-05-02T01:51:25.938Z,995.53
2019-05-02T01:52:25.085Z,995.59
2019-05-02T01:53:29.129Z,995.54
2019-05-02T01:54:25.873Z,995.52
2019-05-02T01:55:24.861Z,995.53
2019-05-02T01:56:28.568Z,995.50
2019-05-02T01:57:25.870Z,995.49
2019-05-02T01:58:24.828Z,995.48
2019-05-02T01:59:29.128Z,995.49
2019-05-02T02:00:25.807Z,995.49
2019-05-02T02:01:24.792Z,995.47
2019-05-02T02:02:28.120Z,995.46
2019-05-02T02:03:25.806Z,995.39
2019-05-02T02:04:24.758Z,995.41
2019-05-02T02:05:27.563Z,995.38
2019-05-02T02:06:25.739Z,995.37
2019-05-02T02:07:24.725Z,995.38
2019-05-02T02:08:27.404Z,995.35
2019-05-02T02:09:25.733Z,995.36
2019-05-02T02:10:24.692Z,995.35
2019-05-02T02:11:28.445Z,995.35
2019-05-02T02:12:25.670Z,995.30
2019-05-02T02:13:24.658Z,995.28
2019-05-02T02:14:24.646Z,995.33
2019-05-02T02:15:25.136Z,995.35
2019-05-02T02:16:24.622Z,995.34
2019-05-02T02:17:24.610Z,995.38
2019-05-02T02:18:27.508Z,995.38
2019-05-02T02:19:24.593Z,995.37
2019-05-02T02:20:24.579Z,995.31
2019-05-02T02:21:25.774Z,995.31
2019-05-02T02:22:24.558Z,995.31
2019-05-02T02:23:24.542Z,995.31
2019-05-02T02:24:25.275Z,995.29
2019-05-02T02:25:24.522Z,995.28
2019-05-02T02:26:24.509Z,995.27
2019-05-02T02:27:25.725Z,995.25
2019-05-02T02:28:24.487Z,995.25
2019-05-02T02:29:24.474Z,995.25
2019-05-02T02:30:26.573Z,995.26
2019-05-02T02:31:24.453Z,995.28
2019-05-02T02:32:27.109Z,995.23
2019-05-02T02:33:24.458Z,995.24
2019-05-02T02:34:29.037Z,995.30
2019-05-02T02:35:25.411Z,995.32
2019-05-02T02:36:31.160Z,995.30
2019-05-02T02:37:25.387Z,995.32
2019-05-02T02:38:26.729Z,995.33
2019-05-02T02:39:25.394Z,995.33
2019-05-02T02:40:32.580Z,995.34
2019-05-02T02:41:25.338Z,995.32
2019-05-02T02:42:25.169Z,995.34
2019-05-02T02:43:34.417Z,995.31
2019-05-02T02:44:25.304Z,995.33
2019-05-02T02:45:24.331Z,995.37
2019-05-02T02:46:24.288Z,995.35
2019-05-02T02:47:24.274Z,995.32
2019-05-02T02:48:24.261Z,995.31
2019-05-02T02:49:24.782Z,995.30
2019-05-02T02:50:24.243Z,995.32
2019-05-02T02:51:26.254Z,995.32
2019-05-02T02:52:24.216Z,995.30
2019-05-02T02:53:25.727Z,995.26
2019-05-02T02:54:24.199Z,995.25
2019-05-02T02:55:24.548Z,995.30
2019-05-02T02:56:24.171Z,995.26
2019-05-02T02:57:28.197Z,995.26
2019-05-02T02:58:24.147Z,995.26
2019-05-02T02:59:26.257Z,995.27
2019-05-02T03:00:24.127Z,995.29
2019-05-02T03:01:29.021Z,995.30
2019-05-02T03:02:25.139Z,995.25
2019-05-02T03:03:28.100Z,995.25
2019-05-02T03:04:25.086Z,995.26
2019-05-02T03:05:26.321Z,995.23
2019-05-02T03:06:24.061Z,995.26
2019-05-02T03:07:25.908Z,995.20
2019-05-02T03:08:24.063Z,995.25
2019-05-02T03:09:26.763Z,995.21
2019-05-02T03:10:24.015Z,995.17
2019-05-02T03:11:25.546Z,995.20
2019-05-02T03:12:23.992Z,995.20
2019-05-02T03:13:24.309Z,995.24
2019-05-02T03:14:23.999Z,995.18
2019-05-02T03:15:27.832Z,995.18
2019-05-02T03:16:24.947Z,995.19
2019-05-02T03:17:26.183Z,995.19
2019-05-02T03:18:27.000Z,995.23
2019-05-02T03:19:23.926Z,995.21
2019-05-02T03:20:23.950Z,995.18
2019-05-02T03:21:23.895Z,995.22
2019-05-02T03:22:23.885Z,995.23
2019-05-02T03:23:24.142Z,995.18
2019-05-02T03:24:23.856Z,995.22
2019-05-02T03:25:25.104Z,995.21
2019-05-02T03:26:24.896Z,995.23
2019-05-02T03:27:29.873Z,995.26
2019-05-02T03:28:24.819Z,995.24
2019-05-02T03:29:23.809Z,995.19
2019-05-02T03:30:31.500Z,995.25
2019-05-02T03:31:29.565Z,995.18
2019-05-02T03:32:33.520Z,995.23
2019-05-02T03:33:24.760Z,995.19
2019-05-02T03:34:23.753Z,995.25
2019-05-02T03:35:40.215Z,995.23
2019-05-02T03:36:34.330Z,995.19
2019-05-02T03:37:24.711Z,995.22
2019-05-02T03:38:31.536Z,995.25
2019-05-02T03:39:24.691Z,995.25
2019-05-02T03:40:23.687Z,995.27
2019-05-02T03:41:23.916Z,995.28
2019-05-02T03:42:23.661Z,995.27
2019-05-02T03:43:25.540Z,995.28
2019-05-02T03:44:26.238Z,995.28
2019-05-02T03:45:23.624Z,995.21
2019-05-02T03:46:23.615Z,995.22
2019-05-02T03:47:23.601Z,995.24
2019-05-02T03:48:25.654Z,995.24
2019-05-02T03:49:23.582Z,995.27
2019-05-02T03:50:30.732Z,995.23
2019-05-02T03:51:25.384Z,995.18
2019-05-02T03:52:23.545Z,995.18
2019-05-02T03:53:25.362Z,995.17
2019-05-02T03:54:23.522Z,995.14
2019-05-02T03:55:30.305Z,995.16
2019-05-02T03:56:24.536Z,995.17
2019-05-02T03:57:31.667Z,995.16
2019-05-02T03:58:24.481Z,995.18
2019-05-02T03:59:23.468Z,995.18
2019-05-02T04:00:24.372Z,995.16
2019-05-02T04:01:23.448Z,995.15
2019-05-02T04:02:23.471Z,995.17
2019-05-02T04:03:23.422Z,995.19
2019-05-02T04:04:23.412Z,995.22
2019-05-02T04:05:23.401Z,995.15
2019-05-02T04:06:23.880Z,995.23
2019-05-02T04:07:23.378Z,995.21
2019-05-02T04:08:23.396Z,995.17
2019-05-02T04:09:23.352Z,995.23
2019-05-02T04:10:23.342Z,995.18
2019-05-02T04:11:23.336Z,995.21
2019-05-02T04:12:23.322Z,995.16
2019-05-02T04:13:23.310Z,995.22
2019-05-02T04:14:36.809Z,995.20
2019-05-02T04:15:28.824Z,995.19
2019-05-02T04:16:24.289Z,995.19
2019-05-02T04:17:28.802Z,995.20
2019-05-02T04:18:24.253Z,995.22
2019-05-02T04:19:28.550Z,995.20
2019-05-02T04:20:24.263Z,995.23
2019-05-02T04:21:26.049Z,995.26
2019-05-02T04:22:23.212Z,995.25
2019-05-02T04:23:27.516Z,995.23
2019-05-02T04:24:24.189Z,995.26
2019-05-02T04:25:27.785Z,995.28
2019-05-02T04:26:24.191Z,995.29
2019-05-02T04:27:31.420Z,995.32
2019-05-02T04:28:24.138Z,995.26
2019-05-02T04:29:24.509Z,995.24
2019-05-02T04:30:24.118Z,995.20
2019-05-02T04:31:24.858Z,995.19
2019-05-02T04:32:24.134Z,995.19
2019-05-02T04:33:29.019Z,995.25
2019-05-02T04:34:24.074Z,995.21
2019-05-02T04:35:28.828Z,995.22
2019-05-02T04:36:24.053Z,995.22
2019-05-02T04:37:23.041Z,995.18
2019-05-02T04:38:31.752Z,995.22
2019-05-02T04:39:24.021Z,995.19
2019-05-02T04:40:23.006Z,995.17
2019-05-02T04:41:28.611Z,995.17
2019-05-02T04:42:23.990Z,995.16
2019-05-02T04:43:22.972Z,995.17
2019-05-02T04:44:29.795Z,995.19
2019-05-02T04:45:29.238Z,995.22
2019-05-02T04:46:28.116Z,995.21
2019-05-02T04:47:23.934Z,995.21
2019-05-02T04:48:22.915Z,995.25
2019-05-02T04:49:32.694Z,995.25
2019-05-02T04:50:25.221Z,995.24
2019-05-02T04:51:22.883Z,995.23
2019-05-02T04:52:22.881Z,995.23
2019-05-02T04:53:25.937Z,995.22
2019-05-02T04:54:31.317Z,995.20
2019-05-02T04:55:30.306Z,995.21
2019-05-02T04:56:23.854Z,995.21
2019-05-02T04:57:29.813Z,995.24
2019-05-02T04:58:27.715Z,995.22
2019-05-02T04:59:23.795Z,995.24
2019-05-02T05:00:22.780Z,995.24
2019-05-02T05:01:22.768Z,995.29
2019-05-02T05:02:30.907Z,995.26
2019-05-02T05:03:23.746Z,995.21
2019-05-02T05:04:22.734Z,995.26
2019-05-02T05:05:25.566Z,995.22
2019-05-02T05:06:22.713Z,995.25
2019-05-02T05:07:22.707Z,995.26
2019-05-02T05:08:26.355Z,995.24
2019-05-02T05:09:23.678Z,995.22
2019-05-02T05:10:22.668Z,995.23
2019-05-02T05:11:24.976Z,995.21
2019-05-02T05:12:22.645Z,995.21
2019-05-02T05:13:23.328Z,995.25
2019-05-02T05:14:22.664Z,995.19
2019-05-02T05:15:35.498Z,995.19
2019-05-02T05:16:23.603Z,995.21
2019-05-02T05:17:24.978Z,995.20
2019-05-02T05:18:23.578Z,995.23
2019-05-02T05:19:23.028Z,995.20
2019-05-02T05:20:23.585Z,995.21
2019-05-02T05:21:24.636Z,995.27
2019-05-02T05:22:22.534Z,995.29
2019-05-02T05:23:22.521Z,995.29
2019-05-02T05:24:24.883Z,995.34
2019-05-02T05:25:22.500Z,995.31
2019-05-02T05:26:22.516Z,995.34
2019-05-02T05:27:22.983Z,995.29
2019-05-02T05:28:22.467Z,995.35
2019-05-02T05:29:23.417Z,995.32
2019-05-02T05:30:22.446Z,995.36
2019-05-02T05:31:23.979Z,995.34
2019-05-02T05:32:22.502Z,995.31
2019-05-02T05:33:22.419Z,995.34
2019-05-02T05:34:22.813Z,995.30
2019-05-02T05:35:23.420Z,995.33
2019-05-02T05:36:28.878Z,995.34
2019-05-02T05:37:23.397Z,995.32
2019-05-02T05:38:23.052Z,995.34
2019-05-02T05:39:23.343Z,995.36
2019-05-02T05:40:27.133Z,995.34
2019-05-02T05:41:23.364Z,995.34
2019-05-02T05:42:23.158Z,995.36
2019-05-02T05:43:23.326Z,995.31
2019-05-02T05:44:23.350Z,995.36
2019-05-02T05:45:23.276Z,995.38
2019-05-02T05:46:22.275Z,995.37
2019-05-02T05:47:22.257Z,995.39
2019-05-02T05:48:22.251Z,995.40
2019-05-02T05:49:22.261Z,995.36
2019-05-02T05:50:22.221Z,995.40
2019-05-02T05:51:22.208Z,995.41
2019-05-02T05:52:22.197Z,995.42
2019-05-02T05:53:24.364Z,995.38
2019-05-02T05:54:22.176Z,995.36
2019-05-02T05:55:24.448Z,995.39
2019-05-02T05:56:22.155Z,995.39
2019-05-02T05:57:22.141Z,995.40
2019-05-02T05:58:22.146Z,995.34
2019-05-02T05:59:26.863Z,995.34
2019-05-02T06:00:23.434Z,995.32
2019-05-02T06:01:25.942Z,995.32
2019-05-02T06:02:23.087Z,995.32
2019-05-02T06:03:22.071Z,995.35
2019-05-02T06:04:23.633Z,995.38
2019-05-02T06:05:22.052Z,995.35
2019-05-02T06:06:23.394Z,995.31
2019-05-02T06:07:22.027Z,995.27
2019-05-02T06:08:22.020Z,995.27
2019-05-02T06:09:26.226Z,995.26
2019-05-02T06:10:22.991Z,995.30
2019-05-02T06:11:21.981Z,995.28
2019-05-02T06:12:26.159Z,995.24
2019-05-02T06:13:22.959Z,995.27
2019-05-02T06:14:24.929Z,995.23
2019-05-02T06:15:21.935Z,995.26
2019-05-02T06:16:21.923Z,995.22
2019-05-02T06:17:23.084Z,995.23
2019-05-02T06:18:22.929Z,995.22
2019-05-02T06:19:21.889Z,995.21
2019-05-02T06:20:25.645Z,995.24
2019-05-02T06:21:22.865Z,995.19
2019-05-02T06:22:24.292Z,995.24
2019-05-02T06:23:21.843Z,995.25
2019-05-02T06:24:21.859Z,995.26
2019-05-02T06:25:32.404Z,995.30
2019-05-02T06:26:22.812Z,995.24
2019-05-02T06:27:26.005Z,995.25
2019-05-02T06:28:22.786Z,995.24
2019-05-02T06:29:21.774Z,995.25
2019-05-02T06:30:21.791Z,995.23
2019-05-02T06:31:21.756Z,995.25
2019-05-02T06:32:21.739Z,995.28
2019-05-02T06:33:25.821Z,995.29
2019-05-02T06:34:22.720Z,995.29
2019-05-02T06:35:22.471Z,995.28
2019-05-02T06:36:21.723Z,995.26
2019-05-02T06:37:21.681Z,995.27
2019-05-02T06:38:22.841Z,995.29
2019-05-02T06:39:21.659Z,995.28
2019-05-02T06:40:21.648Z,995.26
2019-05-02T06:41:22.318Z,995.29
2019-05-02T06:42:21.651Z,995.26
2019-05-02T06:43:21.616Z,995.27
2019-05-02T06:44:23.813Z,995.22
2019-05-02T06:45:21.591Z,995.18
2019-05-02T06:46:27.021Z,995.22
2019-05-02T06:47:22.597Z,995.23
2019-05-02T06:48:21.557Z,995.21
2019-05-02T06:49:24.316Z,995.23
2019-05-02T06:50:24.521Z,995.13
2019-05-02T06:51:21.522Z,995.20
2019-05-02T06:52:21.514Z,995.17
2019-05-02T06:53:21.528Z,995.22
2019-05-02T06:54:22.795Z,995.22
2019-05-02T06:55:21.480Z,995.21
2019-05-02T06:56:21.466Z,995.21
2019-05-02T06:57:24.151Z,995.25
2019-05-02T06:58:21.443Z,995.21
2019-05-02T06:59:21.459Z,995.22
2019-05-02T07:00:34.979Z,995.16
2019-05-02T07:01:22.961Z,995.16
2019-05-02T07:02:21.397Z,995.19
2019-05-02T07:03:21.386Z,995.17
2019-05-02T07:04:23.084Z,995.20
2019-05-02T07:05:21.389Z,995.17
2019-05-02T07:06:21.404Z,995.18
2019-05-02T07:07:25.216Z,995.16
2019-05-02T07:08:22.365Z,995.18
2019-05-02T07:09:21.754Z,995.16
2019-05-02T07:10:25.550Z,995.15
2019-05-02T07:11:22.321Z,995.19
2019-05-02T07:12:21.282Z,995.17
2019-05-02T07:13:21.272Z,995.13
2019-05-02T07:14:23.695Z,995.09
2019-05-02T07:15:21.341Z,995.10
2019-05-02T07:16:36.871Z,995.16
2019-05-02T07:17:26.479Z,995.12
2019-05-02T07:18:22.214Z,995.16
2019-05-02T07:19:21.905Z,995.08
2019-05-02T07:20:22.191Z,995.10
2019-05-02T07:21:23.578Z,995.11
2019-05-02T07:22:21.167Z,995.11
2019-05-02T07:23:21.187Z,995.09
2019-05-02T07:24:25.324Z,995.07
2019-05-02T07:25:22.134Z,995.05
2019-05-02T07:26:23.239Z,995.06
2019-05-02T07:27:21.112Z,995.08
2019-05-02T07:28:23.817Z,995.09
2019-05-02T07:29:21.899Z,995.05
2019-05-02T07:30:21.077Z,995.12
2019-05-02T07:31:21.069Z,995.09
2019-05-02T07:32:24.906Z,995.10
2019-05-02T07:33:22.049Z,995.09
2019-05-02T07:34:21.036Z,995.10
2019-05-02T07:35:24.412Z,995.10
2019-05-02T07:36:21.012Z,995.12
2019-05-02T07:37:21.000Z,995.13
2019-05-02T07:38:25.730Z,995.12
2019-05-02T07:39:21.976Z,995.17
2019-05-02T07:40:20.968Z,995.17
2019-05-02T07:41:24.081Z,995.13
2019-05-02T07:42:21.944Z,995.17
2019-05-02T07:43:22.295Z,995.13
2019-05-02T07:44:20.921Z,995.12
2019-05-02T07:45:20.909Z,995.11
2019-05-02T07:46:22.215Z,995.12
2019-05-02T07:47:20.920Z,995.14
2019-05-02T07:48:20.879Z,995.12
2019-05-02T07:49:21.011Z,995.08
2019-05-02T07:50:20.860Z,995.08
2019-05-02T07:51:21.350Z,995.06
2019-05-02T07:52:20.832Z,995.08
2019-05-02T07:53:20.849Z,995.12
2019-05-02T07:54:24.869Z,995.09
2019-05-02T07:55:21.800Z,995.14
2019-05-02T07:56:20.788Z,995.11
2019-05-02T07:57:25.193Z,995.12
2019-05-02T07:58:21.794Z,995.12
2019-05-02T07:59:23.480Z,995.07
2019-05-02T08:00:20.742Z,995.04
2019-05-02T08:01:20.736Z,995.04
2019-05-02T08:02:25.182Z,995.06
2019-05-02T08:03:21.710Z,995.08
2019-05-02T08:04:20.724Z,995.07
2019-05-02T08:05:22.242Z,995.03
2019-05-02T08:06:34.038Z,995.06
2019-05-02T08:07:22.568Z,995.03
2019-05-02T08:08:20.656Z,995.04
2019-05-02T08:09:20.640Z,994.99
2019-05-02T08:10:22.229Z,995.03
2019-05-02T08:11:20.620Z,995.02
2019-05-02T08:12:20.610Z,994.99
2019-05-02T08:13:20.596Z,995.04
2019-05-02T08:14:20.585Z,995.02
2019-05-02T08:15:20.575Z,994.98
2019-05-02T08:16:22.312Z,995.00
2019-05-02T08:17:21.551Z,995.00
2019-05-02T08:18:20.545Z,995.02
2019-05-02T08:19:23.461Z,994.99
2019-05-02T08:20:21.278Z,995.05
2019-05-02T08:21:20.507Z,995.03
2019-05-02T08:22:20.527Z,995.02
2019-05-02T08:23:25.697Z,994.99
2019-05-02T08:24:21.475Z,994.99
2019-05-02T08:25:20.477Z,994.95
2019-05-02T08:26:21.763Z,995.05
2019-05-02T08:27:23.020Z,995.02
2019-05-02T08:28:20.464Z,995.07
2019-05-02T08:29:23.469Z,995.03
2019-05-02T08:30:21.405Z,995.08
2019-05-02T08:31:21.023Z,995.04
2019-05-02T08:32:20.385Z,995.06
2019-05-02T08:33:20.373Z,995.10
2019-05-02T08:34:20.417Z,995.07
2019-05-02T08:35:20.351Z,995.07
2019-05-02T08:36:20.343Z,995.09
2019-05-02T08:37:20.331Z,995.05
2019-05-02T08:38:20.317Z,995.08
2019-05-02T08:39:20.306Z,995.07
2019-05-02T08:40:20.325Z,995.01
2019-05-02T08:41:21.459Z,995.04
2019-05-02T08:42:20.272Z,995.00
2019-05-02T08:43:20.262Z,995.00
2019-05-02T08:44:20.248Z,994.99
2019-05-02T08:45:20.244Z,995.02
2019-05-02T08:46:20.255Z,994.95
2019-05-02T08:47:23.777Z,994.96
2019-05-02T08:48:22.764Z,994.96
2019-05-02T08:49:20.232Z,994.94
2019-05-02T08:50:20.183Z,994.95
2019-05-02T08:51:20.171Z,994.90
2019-05-02T08:52:20.230Z,994.89
2019-05-02T08:53:22.020Z,994.89
2019-05-02T08:54:20.137Z,994.90
2019-05-02T08:55:20.128Z,994.91
2019-05-02T08:56:21.446Z,994.89
2019-05-02T08:57:20.105Z,994.81
2019-05-02T08:58:20.121Z,994.85
2019-05-02T08:59:24.349Z,994.89
2019-05-02T09:00:20.073Z,994.81
2019-05-02T09:01:20.060Z,994.85
2019-05-02T09:02:21.126Z,994.75
2019-05-02T09:03:21.067Z,994.79
2019-05-02T09:04:24.134Z,994.80
2019-05-02T09:05:21.017Z,994.77
2019-05-02T09:06:22.530Z,994.76
2019-05-02T09:07:20.074Z,994.73
2019-05-02T09:08:19.984Z,994.72
2019-05-02T09:09:22.829Z,994.72
2019-05-02T09:10:20.958Z,994.74
2019-05-02T09:11:19.948Z,994.70
2019-05-02T09:12:20.395Z,994.69
2019-05-02T09:13:26.385Z,994.65
2019-05-02T09:14:21.673Z,994.67
2019-05-02T09:15:19.905Z,994.62
2019-05-02T09:16:21.595Z,994.57
2019-05-02T09:17:33.161Z,994.59
2019-05-02T09:18:22.319Z,994.62
2019-05-02T09:19:21.483Z,994.64
2019-05-02T09:20:23.549Z,994.55
2019-05-02T09:21:21.881Z,994.61
2019-05-02T09:22:19.824Z,994.57
2019-05-02T09:23:19.813Z,994.60
2019-05-02T09:24:23.289Z,994.57
2019-05-02T09:25:21.827Z,994.49
2019-05-02T09:26:33.319Z,994.59
2019-05-02T09:27:22.412Z,994.58
2019-05-02T09:28:22.644Z,994.56
2019-05-02T09:29:22.206Z,994.58
2019-05-02T09:30:22.885Z,994.53
2019-05-02T09:31:22.565Z,994.51
2019-05-02T09:32:24.803Z,994.44
2019-05-02T09:33:22.640Z,994.50
2019-05-02T09:34:22.807Z,994.49
2019-05-02T09:35:22.932Z,994.52
2019-05-02T09:36:19.667Z,994.55
2019-05-02T09:37:19.684Z,994.52
2019-05-02T09:38:19.644Z,994.47
2019-05-02T09:39:19.633Z,994.43
2019-05-02T09:40:19.621Z,994.45
2019-05-02T09:41:20.158Z,994.46
2019-05-02T09:42:21.596Z,994.47
2019-05-02T09:43:19.616Z,994.44
2019-05-02T09:44:19.576Z,994.40
2019-05-02T09:45:19.569Z,994.45
2019-05-02T09:46:19.553Z,994.41
2019-05-02T09:47:19.541Z,994.41
2019-05-02T09:48:22.898Z,994.40
2019-05-02T09:49:22.066Z,994.33
2019-05-02T09:50:26.639Z,994.38
2019-05-02T09:51:21.631Z,994.32
2019-05-02T09:52:19.567Z,994.32
2019-05-02T09:53:21.736Z,994.32
2019-05-02T09:54:22.834Z,994.32
2019-05-02T09:55:19.484Z,994.26
2019-05-02T09:56:19.440Z,994.22
2019-05-02T09:57:19.433Z,994.23
2019-05-02T09:58:21.387Z,994.16
2019-05-02T09:59:27.803Z,994.22
2019-05-02T10:00:22.134Z,994.15
2019-05-02T10:01:19.385Z,994.14
2019-05-02T10:02:19.375Z,994.09
2019-05-02T10:03:19.363Z,994.15
2019-05-02T10:04:19.352Z,994.08
2019-05-02T10:05:19.343Z,994.22
2019-05-02T10:06:19.379Z,994.26
2019-05-02T10:07:19.319Z,994.21
2019-05-02T10:08:19.305Z,994.22
2019-05-02T10:09:24.315Z,994.15
2019-05-02T10:10:21.919Z,994.15
2019-05-02T10:11:22.492Z,994.13
2019-05-02T10:12:20.288Z,994.17
2019-05-02T10:13:19.254Z,994.16
2019-05-02T10:14:19.240Z,994.16
2019-05-02T10:15:19.233Z,994.16
2019-05-02T10:16:23.646Z,994.13
2019-05-02T10:17:20.216Z,994.15
2019-05-02T10:18:19.588Z,994.05
2019-05-02T10:19:19.194Z,994.00
2019-05-02T10:20:25.403Z,993.98
2019-05-02T10:21:20.164Z,994.09
2019-05-02T10:22:19.154Z,994.08
2019-05-02T10:23:19.978Z,994.03
2019-05-02T10:24:19.170Z,994.03
2019-05-02T10:25:19.122Z,993.90
2019-05-02T10:26:20.169Z,993.91
2019-05-02T10:27:19.102Z,993.89
2019-05-02T10:28:19.090Z,993.77
2019-05-02T10:29:22.802Z,994.01
2019-05-02T10:30:21.672Z,994.00
2019-05-02T10:31:19.055Z,993.94
2019-05-02T10:32:19.044Z,993.94
2019-05-02T10:33:19.035Z,993.93
2019-05-02T10:34:19.114Z,993.75
2019-05-02T10:35:19.011Z,993.91
2019-05-02T10:36:19.890Z,993.95
2019-05-02T10:37:18.991Z,993.94
2019-05-02T10:38:19.515Z,993.91
2019-05-02T10:39:18.974Z,993.98
2019-05-02T10:40:18.960Z,993.91
2019-05-02T10:41:18.946Z,993.89
2019-05-02T10:42:18.964Z,993.86
2019-05-02T10:43:18.926Z,993.71
2019-05-02T10:44:18.915Z,993.71
2019-05-02T10:45:18.909Z,993.93
2019-05-02T10:46:18.893Z,993.93
2019-05-02T10:47:18.884Z,993.91
2019-05-02T10:48:25.904Z,993.86
2019-05-02T10:49:19.868Z,993.86
2019-05-02T10:50:18.853Z,993.87
2019-05-02T10:51:18.848Z,993.92
2019-05-02T10:52:21.576Z,993.84
2019-05-02T10:53:21.784Z,993.88
2019-05-02T10:54:20.603Z,993.82
2019-05-02T10:55:21.675Z,993.81
2019-05-02T10:56:18.789Z,993.82
2019-05-02T10:57:18.775Z,993.84
2019-05-02T10:58:18.765Z,993.78
2019-05-02T10:59:18.782Z,993.60
2019-05-02T11:00:18.742Z,993.60
2019-05-02T11:01:18.737Z,993.55
2019-05-02T11:02:18.721Z,993.57
2019-05-02T11:03:18.711Z,993.58
2019-05-02T11:04:18.700Z,993.81
2019-05-02T11:05:22.532Z,993.82
2019-05-02T11:06:22.096Z,993.80
2019-05-02T11:07:22.782Z,993.74
2019-05-02T11:08:19.656Z,993.83
2019-05-02T11:09:22.561Z,993.61
2019-05-02T11:10:21.684Z,993.74
2019-05-02T11:11:18.624Z,993.76
2019-05-02T11:12:24.339Z,993.85
2019-05-02T11:13:21.698Z,993.81
2019-05-02T11:14:18.598Z,993.78
2019-05-02T11:15:18.585Z,993.85
2019-05-02T11:16:18.601Z,993.55
2019-05-02T11:17:18.618Z,993.53
2019-05-02T11:18:18.550Z,993.52
2019-05-02T11:19:18.540Z,993.78
2019-05-02T11:20:18.533Z,993.84
2019-05-02T11:21:18.901Z,993.77
2019-05-02T11:22:18.534Z,993.80
2019-05-02T11:23:18.508Z,993.77
2019-05-02T11:24:18.484Z,993.87
2019-05-02T11:25:18.477Z,993.85
2019-05-02T11:26:22.562Z,993.82
2019-05-02T11:27:19.480Z,993.78
2019-05-02T11:28:18.446Z,993.52
2019-05-02T11:29:18.433Z,993.39
2019-05-02T11:30:22.299Z,993.42
2019-05-02T11:31:19.411Z,993.53
2019-05-02T11:32:18.410Z,993.78
2019-05-02T11:33:18.441Z,993.41
2019-05-02T11:34:18.433Z,993.72
2019-05-02T11:35:18.391Z,993.64
2019-05-02T11:36:18.358Z,993.77
2019-05-02T11:37:18.346Z,993.78
2019-05-02T11:38:44.382Z,993.72
2019-05-02T11:39:27.710Z,993.73
2019-05-02T11:40:19.314Z,993.70
2019-05-02T11:41:18.303Z,993.58
2019-05-02T11:42:25.649Z,993.49
2019-05-02T11:43:19.285Z,993.49
2019-05-02T11:44:18.272Z,993.34
2019-05-02T11:45:18.290Z,993.39
2019-05-02T11:46:18.251Z,993.31
2019-05-02T11:47:24.913Z,993.31
2019-05-02T11:48:19.852Z,993.30
2019-05-02T11:49:18.222Z,993.23
2019-05-02T11:50:18.209Z,993.29
2019-05-02T11:51:18.227Z,993.29
2019-05-02T11:52:18.190Z,993.31
2019-05-02T11:53:29.143Z,993.28
2019-05-02T11:54:19.165Z,993.29
2019-05-02T11:55:18.924Z,993.26
2019-05-02T11:56:19.174Z,993.31
2019-05-02T11:57:21.085Z,993.26
2019-05-02T11:58:19.122Z,993.25
2019-05-02T11:59:22.726Z,993.23
2019-05-02T12:00:19.102Z,993.28
2019-05-02T12:01:20.226Z,993.25
2019-05-02T12:02:19.161Z,993.24
2019-05-02T12:03:18.069Z,993.28
2019-05-02T12:04:18.057Z,993.30
2019-05-02T12:05:18.048Z,993.27
2019-05-02T12:06:19.782Z,993.26
2019-05-02T12:07:18.025Z,993.34
2019-05-02T12:08:18.041Z,993.30
2019-05-02T12:09:18.002Z,993.33
2019-05-02T12:10:17.993Z,993.34
2019-05-02T12:11:17.988Z,993.35
2019-05-02T12:12:17.970Z,993.28
2019-05-02T12:13:17.960Z,993.33
2019-05-02T12:14:17.974Z,993.32
2019-05-02T12:15:17.936Z,993.33
2019-05-02T12:16:17.925Z,993.33
2019-05-02T12:17:17.916Z,993.32
2019-05-02T12:18:20.497Z,993.25
2019-05-02T12:19:17.892Z,993.26
2019-05-02T12:20:17.915Z,993.24
2019-05-02T12:21:17.870Z,993.29
2019-05-02T12:22:17.861Z,993.28
2019-05-02T12:23:17.855Z,993.24
2019-05-02T12:24:17.840Z,993.23
2019-05-02T12:25:17.829Z,993.26
2019-05-02T12:26:17.845Z,993.34
2019-05-02T12:27:17.806Z,993.32
2019-05-02T12:28:17.799Z,993.28